createdAt,value
2017-10-17T00:00:04.144Z,61.86
2017-10-17T00:01:04.429Z,61.66
2017-10-17T00:02:04.215Z,61.86
2017-10-17T00:03:04.257Z,61.76
2017-10-17T00:04:04.279Z,61.76
2017-10-17T00:05:04.324Z,61.57
2017-10-17T00:06:04.344Z,62.15
2017-10-17T00:07:04.380Z,61.76
2017-10-17T00:08:04.734Z,61.86
2017-10-17T00:09:04.470Z,61.76
2017-10-17T00:10:04.515Z,61.76
2017-10-17T00:11:04.629Z,61.76
2017-10-17T00:12:04.578Z,61.76
2017-10-17T00:13:04.586Z,61.86
2017-10-17T00:14:04.630Z,61.66
2017-10-17T00:15:04.976Z,61.66
2017-10-17T00:16:04.698Z,61.76
2017-10-17T00:17:04.715Z,61.47
2017-10-17T00:18:04.749Z,61.95
2017-10-17T00:19:04.779Z,62.02
2017-10-17T00:20:04.975Z,61.86
2017-10-17T00:21:05.095Z,61.95
2017-10-17T00:22:04.885Z,62.15
2017-10-17T00:23:04.913Z,62.02
2017-10-17T00:24:04.945Z,61.92
2017-10-17T00:25:04.997Z,62.50
2017-10-17T00:26:05.013Z,62.40
2017-10-17T00:27:05.320Z,62.40
2017-10-17T00:28:05.104Z,62.50
2017-10-17T00:29:05.119Z,62.21
2017-10-17T00:30:05.165Z,62.31
2017-10-17T00:31:05.207Z,62.31
2017-10-17T00:32:05.213Z,62.12
2017-10-17T00:33:05.549Z,62.31
2017-10-17T00:34:05.302Z,62.31
2017-10-17T00:35:05.332Z,62.02
2017-10-17T00:36:05.367Z,62.21
2017-10-17T00:37:05.386Z,62.40
2017-10-17T00:38:05.434Z,62.12
2017-10-17T00:39:05.705Z,62.12
2017-10-17T00:40:05.499Z,62.31
2017-10-17T00:41:05.545Z,62.12
2017-10-17T00:42:05.555Z,62.12
2017-10-17T00:43:05.663Z,62.31
2017-10-17T00:44:05.615Z,62.40
2017-10-17T00:45:05.986Z,62.12
2017-10-17T00:46:05.702Z,62.21
2017-10-17T00:47:05.744Z,62.40
2017-10-17T00:48:05.776Z,61.92
2017-10-17T00:49:05.785Z,62.40
2017-10-17T00:50:05.822Z,62.40
2017-10-17T00:51:06.104Z,62.60
2017-10-17T00:52:06.082Z,62.50
2017-10-17T00:53:05.918Z,62.40
2017-10-17T00:54:05.973Z,62.70
2017-10-17T00:55:06.007Z,62.40
2017-10-17T00:56:06.039Z,62.60
2017-10-17T00:57:06.411Z,62.60
2017-10-17T00:58:06.095Z,62.40
2017-10-17T00:59:06.114Z,62.50
2017-10-17T01:00:06.169Z,62.60
2017-10-17T01:01:06.184Z,62.70
2017-10-17T01:02:06.246Z,62.70
2017-10-17T01:03:06.649Z,62.79
2017-10-17T01:04:06.285Z,62.60
2017-10-17T01:05:06.345Z,62.60
2017-10-17T01:06:06.382Z,62.50
2017-10-17T01:07:06.400Z,62.60
2017-10-17T01:08:06.431Z,62.79
2017-10-17T01:09:06.745Z,62.40
2017-10-17T01:10:06.481Z,62.50
2017-10-17T01:11:06.529Z,62.40
2017-10-17T01:12:06.562Z,62.79
2017-10-17T01:13:06.621Z,62.40
2017-10-17T01:14:06.801Z,62.50
2017-10-17T01:15:06.960Z,62.70
2017-10-17T01:16:06.680Z,62.50
2017-10-17T01:17:06.735Z,62.40
2017-10-17T01:18:06.745Z,62.50
2017-10-17T01:19:06.798Z,62.89
2017-10-17T01:20:06.815Z,62.79
2017-10-17T01:21:07.169Z,62.70
2017-10-17T01:22:06.899Z,62.79
2017-10-17T01:23:06.913Z,62.60
2017-10-17T01:24:06.965Z,62.50
2017-10-17T01:25:07.022Z,62.60
2017-10-17T01:26:07.030Z,62.50
2017-10-17T01:27:07.430Z,62.40
2017-10-17T01:28:07.102Z,62.40
2017-10-17T01:29:07.133Z,62.79
2017-10-17T01:30:07.163Z,62.79
2017-10-17T01:31:07.185Z,62.79
2017-10-17T01:32:07.232Z,62.66
2017-10-17T01:33:07.552Z,62.60
2017-10-17T01:34:07.297Z,62.37
2017-10-17T01:35:07.312Z,62.79
2017-10-17T01:36:07.348Z,62.89
2017-10-17T01:37:07.378Z,62.47
2017-10-17T01:38:07.417Z,62.47
2017-10-17T01:39:07.444Z,62.47
2017-10-17T01:40:07.748Z,62.28
2017-10-17T01:41:07.526Z,62.66
2017-10-17T01:42:07.570Z,62.37
2017-10-17T01:43:07.619Z,62.76
2017-10-17T01:44:07.610Z,62.57
2017-10-17T01:45:07.664Z,62.37
2017-10-17T01:46:07.679Z,62.37
2017-10-17T01:47:07.963Z,62.76
2017-10-17T01:48:07.837Z,62.66
2017-10-17T01:49:07.777Z,62.66
2017-10-17T01:50:07.836Z,62.66
2017-10-17T01:51:07.847Z,62.66
2017-10-17T01:52:07.896Z,62.57
2017-10-17T01:53:07.975Z,62.76
2017-10-17T01:54:08.260Z,62.66
2017-10-17T01:55:08.098Z,62.57
2017-10-17T01:56:08.017Z,62.66
2017-10-17T01:57:08.047Z,62.57
2017-10-17T01:58:08.136Z,62.95
2017-10-17T01:59:08.131Z,62.86
2017-10-17T02:00:08.163Z,63.15
2017-10-17T02:01:08.429Z,62.57
2017-10-17T02:02:08.231Z,62.66
2017-10-17T02:03:08.333Z,63.15
2017-10-17T02:04:08.302Z,63.05
2017-10-17T02:05:08.326Z,62.95
2017-10-17T02:06:08.498Z,63.15
2017-10-17T02:07:08.377Z,63.05
2017-10-17T02:08:08.735Z,63.05
2017-10-17T02:09:08.452Z,63.24
2017-10-17T02:10:08.492Z,62.86
2017-10-17T02:11:08.542Z,63.15
2017-10-17T02:12:08.559Z,62.86
2017-10-17T02:13:08.574Z,63.05
2017-10-17T02:14:08.658Z,62.95
2017-10-17T02:15:08.888Z,63.05
2017-10-17T02:16:08.673Z,63.15
2017-10-17T02:17:08.720Z,63.05
2017-10-17T02:18:08.866Z,62.95
2017-10-17T02:19:08.816Z,62.86
2017-10-17T02:20:08.827Z,63.15
2017-10-17T02:21:08.874Z,62.95
2017-10-17T02:22:09.124Z,63.15
2017-10-17T02:23:08.907Z,62.86
2017-10-17T02:24:08.949Z,63.05
2017-10-17T02:25:08.990Z,63.05
2017-10-17T02:26:09.016Z,62.95
2017-10-17T02:27:09.058Z,63.15
2017-10-17T02:28:09.087Z,62.86
2017-10-17T02:29:09.435Z,62.95
2017-10-17T02:30:09.178Z,63.15
2017-10-17T02:31:09.185Z,62.95
2017-10-17T02:32:09.202Z,62.95
2017-10-17T02:33:09.251Z,62.95
2017-10-17T02:34:09.349Z,62.86
2017-10-17T02:35:09.334Z,63.05
2017-10-17T02:36:09.641Z,62.86
2017-10-17T02:37:09.405Z,63.05
2017-10-17T02:38:09.440Z,63.24
2017-10-17T02:39:09.437Z,62.95
2017-10-17T02:40:09.489Z,63.15
2017-10-17T02:41:09.659Z,62.95
2017-10-17T02:42:09.530Z,62.86
2017-10-17T02:43:09.816Z,62.86
2017-10-17T02:44:09.596Z,62.86
2017-10-17T02:45:09.632Z,63.15
2017-10-17T02:46:09.713Z,63.05
2017-10-17T02:47:09.716Z,63.12
2017-10-17T02:48:09.730Z,62.92
2017-10-17T02:49:09.782Z,62.92
2017-10-17T02:50:10.114Z,62.92
2017-10-17T02:51:09.859Z,63.02
2017-10-17T02:52:09.862Z,63.02
2017-10-17T02:53:09.928Z,62.95
2017-10-17T02:54:09.929Z,63.05
2017-10-17T02:55:09.963Z,63.05
2017-10-17T02:56:10.322Z,62.95
2017-10-17T02:57:10.095Z,62.92
2017-10-17T02:58:10.077Z,63.43
2017-10-17T02:59:10.108Z,63.53
2017-10-17T03:00:10.148Z,63.02
2017-10-17T03:01:10.160Z,63.60
2017-10-17T03:02:10.441Z,63.02
2017-10-17T03:03:10.228Z,63.12
2017-10-17T03:04:10.295Z,62.86
2017-10-17T03:05:10.352Z,62.92
2017-10-17T03:06:10.332Z,62.92
2017-10-17T03:07:10.372Z,62.95
2017-10-17T03:08:10.670Z,62.92
2017-10-17T03:09:10.439Z,63.02
2017-10-17T03:10:10.457Z,62.92
2017-10-17T03:11:10.546Z,63.02
2017-10-17T03:12:10.562Z,62.95
2017-10-17T03:13:10.575Z,63.02
2017-10-17T03:14:10.840Z,62.92
2017-10-17T03:15:10.645Z,62.82
2017-10-17T03:16:10.731Z,63.02
2017-10-17T03:17:10.694Z,62.92
2017-10-17T03:18:10.770Z,63.05
2017-10-17T03:19:10.754Z,62.76
2017-10-17T03:20:11.092Z,63.05
2017-10-17T03:21:10.817Z,62.95
2017-10-17T03:22:10.857Z,62.92
2017-10-17T03:23:10.916Z,63.21
2017-10-17T03:24:10.939Z,62.82
2017-10-17T03:25:10.949Z,62.92
2017-10-17T03:26:11.260Z,63.40
2017-10-17T03:27:11.035Z,63.02
2017-10-17T03:28:11.068Z,63.24
2017-10-17T03:29:11.100Z,63.40
2017-10-17T03:30:11.116Z,63.31
2017-10-17T03:31:11.167Z,63.02
2017-10-17T03:32:11.451Z,63.40
2017-10-17T03:33:11.257Z,62.92
2017-10-17T03:34:11.265Z,62.92
2017-10-17T03:35:11.311Z,63.12
2017-10-17T03:36:11.349Z,63.02
2017-10-17T03:37:11.371Z,63.21
2017-10-17T03:38:11.694Z,63.21
2017-10-17T03:39:11.480Z,63.31
2017-10-17T03:40:11.449Z,63.50
2017-10-17T03:41:11.523Z,63.21
2017-10-17T03:42:11.512Z,63.40
2017-10-17T03:43:11.547Z,63.60
2017-10-17T03:44:11.850Z,63.21
2017-10-17T03:45:11.768Z,63.40
2017-10-17T03:46:11.657Z,63.02
2017-10-17T03:47:11.679Z,62.92
2017-10-17T03:48:11.709Z,63.12
2017-10-17T03:49:11.760Z,63.31
2017-10-17T03:50:12.043Z,63.31
2017-10-17T03:51:11.829Z,63.40
2017-10-17T03:52:11.881Z,63.12
2017-10-17T03:53:11.876Z,63.31
2017-10-17T03:54:11.920Z,63.31
2017-10-17T03:55:11.939Z,63.50
2017-10-17T03:56:12.222Z,63.02
2017-10-17T03:57:12.050Z,62.92
2017-10-17T03:58:12.058Z,63.02
2017-10-17T03:59:12.093Z,63.60
2017-10-17T04:00:12.224Z,63.40
2017-10-17T04:01:12.141Z,63.31
2017-10-17T04:02:12.470Z,63.40
2017-10-17T04:03:12.232Z,63.12
2017-10-17T04:04:12.258Z,63.60
2017-10-17T04:05:12.285Z,63.40
2017-10-17T04:06:12.300Z,63.40
2017-10-17T04:07:12.331Z,63.60
2017-10-17T04:08:12.633Z,63.60
2017-10-17T04:09:12.396Z,63.31
2017-10-17T04:10:12.463Z,62.73
2017-10-17T04:11:12.587Z,63.12
2017-10-17T04:12:12.511Z,62.92
2017-10-17T04:13:12.581Z,63.02
2017-10-17T04:14:12.658Z,62.92
2017-10-17T04:15:12.925Z,62.92
2017-10-17T04:16:12.631Z,63.12
2017-10-17T04:17:12.826Z,62.92
2017-10-17T04:18:12.727Z,62.92
2017-10-17T04:19:12.733Z,62.92
2017-10-17T04:20:12.793Z,62.73
2017-10-17T04:21:12.808Z,62.92
2017-10-17T04:22:13.101Z,62.92
2017-10-17T04:23:13.682Z,63.12
2017-10-17T04:24:12.911Z,62.92
2017-10-17T04:25:12.925Z,62.82
2017-10-17T04:26:12.975Z,63.12
2017-10-17T04:27:13.006Z,62.82
2017-10-17T04:28:13.066Z,62.92
2017-10-17T04:29:13.376Z,62.92
2017-10-17T04:30:13.086Z,62.82
2017-10-17T04:31:14.396Z,62.73
2017-10-17T04:32:13.257Z,63.02
2017-10-17T04:33:13.241Z,62.92
2017-10-17T04:34:13.260Z,63.02
2017-10-17T04:35:13.281Z,62.92
2017-10-17T04:36:13.738Z,63.21
2017-10-17T04:37:13.317Z,62.82
2017-10-17T04:38:13.387Z,63.31
2017-10-17T04:39:13.382Z,63.02
2017-10-17T04:40:13.418Z,62.92
2017-10-17T04:41:13.447Z,63.02
2017-10-17T04:42:13.481Z,62.92
2017-10-17T04:43:13.780Z,63.02
2017-10-17T04:44:13.717Z,62.92
2017-10-17T04:45:13.584Z,62.82
2017-10-17T04:46:13.700Z,63.21
2017-10-17T04:47:13.669Z,62.92
2017-10-17T04:48:13.703Z,62.82
2017-10-17T04:49:13.729Z,63.12
2017-10-17T04:50:14.087Z,63.21
2017-10-17T04:51:13.773Z,63.02
2017-10-17T04:52:13.838Z,62.92
2017-10-17T04:53:13.889Z,63.02
2017-10-17T04:54:13.946Z,62.92
2017-10-17T04:55:14.110Z,62.92
2017-10-17T04:56:13.938Z,63.02
2017-10-17T04:57:14.238Z,63.02
2017-10-17T04:58:14.005Z,62.73
2017-10-17T04:59:14.096Z,63.02
2017-10-17T05:00:14.126Z,62.73
2017-10-17T05:01:14.111Z,63.02
2017-10-17T05:02:14.166Z,62.82
2017-10-17T05:03:14.193Z,62.92
2017-10-17T05:04:14.519Z,62.92
2017-10-17T05:05:14.282Z,62.73
2017-10-17T05:06:14.288Z,63.12
2017-10-17T05:07:14.498Z,62.92
2017-10-17T05:08:14.336Z,62.82
2017-10-17T05:09:14.388Z,63.02
2017-10-17T05:10:14.398Z,62.92
2017-10-17T05:11:14.684Z,63.02
2017-10-17T05:12:14.481Z,63.21
2017-10-17T05:13:14.641Z,63.21
2017-10-17T05:14:14.543Z,62.82
2017-10-17T05:15:14.585Z,62.92
2017-10-17T05:16:14.598Z,63.31
2017-10-17T05:17:14.627Z,63.21
2017-10-17T05:18:14.917Z,62.82
2017-10-17T05:19:14.716Z,62.44
2017-10-17T05:20:14.745Z,62.92
2017-10-17T05:21:14.782Z,63.21
2017-10-17T05:22:14.810Z,62.92
2017-10-17T05:23:14.875Z,62.92
2017-10-17T05:24:14.862Z,63.12
2017-10-17T05:25:15.265Z,62.82
2017-10-17T05:26:15.031Z,62.73
2017-10-17T05:27:14.977Z,62.82
2017-10-17T05:28:14.995Z,62.73
2017-10-17T05:29:15.020Z,62.34
2017-10-17T05:30:15.051Z,62.89
2017-10-17T05:31:15.128Z,63.18
2017-10-17T05:32:15.387Z,62.99
2017-10-17T05:33:15.184Z,62.89
2017-10-17T05:34:15.182Z,62.79
2017-10-17T05:35:15.237Z,62.70
2017-10-17T05:36:15.288Z,62.89
2017-10-17T05:37:15.307Z,62.89
2017-10-17T05:38:15.581Z,63.47
2017-10-17T05:39:15.372Z,63.09
2017-10-17T05:40:15.409Z,63.28
2017-10-17T05:41:15.687Z,62.99
2017-10-17T05:42:15.463Z,64.08
2017-10-17T05:43:15.551Z,64.66
2017-10-17T05:44:15.759Z,64.56
2017-10-17T05:45:15.758Z,64.47
2017-10-17T05:46:15.660Z,64.37
2017-10-17T05:47:15.610Z,64.66
2017-10-17T05:48:15.647Z,64.37
2017-10-17T05:49:15.674Z,64.56
2017-10-17T05:50:16.069Z,64.56
2017-10-17T05:51:15.903Z,64.66
2017-10-17T05:52:15.939Z,64.47
2017-10-17T05:53:15.819Z,64.37
2017-10-17T05:54:15.857Z,64.18
2017-10-17T05:55:15.898Z,64.28
2017-10-17T05:56:16.212Z,64.47
2017-10-17T05:57:15.951Z,64.37
2017-10-17T05:58:16.002Z,64.37
2017-10-17T05:59:16.014Z,64.08
2017-10-17T06:00:16.040Z,64.37
2017-10-17T06:01:16.087Z,64.37
2017-10-17T06:02:16.370Z,64.28
2017-10-17T06:03:16.153Z,64.37
2017-10-17T06:04:16.188Z,64.37
2017-10-17T06:05:16.205Z,64.66
2017-10-17T06:06:16.247Z,64.66
2017-10-17T06:07:16.389Z,64.66
2017-10-17T06:08:16.608Z,64.66
2017-10-17T06:09:16.326Z,64.59
2017-10-17T06:10:16.363Z,64.59
2017-10-17T06:11:16.419Z,64.37
2017-10-17T06:12:16.425Z,64.31
2017-10-17T06:13:16.711Z,64.21
2017-10-17T06:14:16.496Z,64.31
2017-10-17T06:15:16.532Z,64.31
2017-10-17T06:16:16.559Z,64.40
2017-10-17T06:17:16.591Z,64.31
2017-10-17T06:18:16.665Z,64.31
2017-10-17T06:19:16.660Z,64.40
2017-10-17T06:20:16.991Z,64.21
2017-10-17T06:21:16.721Z,64.31
2017-10-17T06:22:16.774Z,64.40
2017-10-17T06:23:16.961Z,64.31
2017-10-17T06:24:16.842Z,64.31
2017-10-17T06:25:16.880Z,64.11
2017-10-17T06:26:17.207Z,64.21
2017-10-17T06:27:16.925Z,64.11
2017-10-17T06:28:16.971Z,64.21
2017-10-17T06:29:17.138Z,64.31
2017-10-17T06:30:17.024Z,64.11
2017-10-17T06:31:17.063Z,63.92
2017-10-17T06:32:17.348Z,63.82
2017-10-17T06:33:17.136Z,64.01
2017-10-17T06:34:17.197Z,63.82
2017-10-17T06:35:17.200Z,63.82
2017-10-17T06:36:17.248Z,63.82
2017-10-17T06:37:17.267Z,64.11
2017-10-17T06:38:17.534Z,64.11
2017-10-17T06:39:17.336Z,64.11
2017-10-17T06:40:17.352Z,63.82
2017-10-17T06:41:17.401Z,63.73
2017-10-17T06:42:17.433Z,63.73
2017-10-17T06:43:17.450Z,63.82
2017-10-17T06:44:17.750Z,63.73
2017-10-17T06:45:17.680Z,63.82
2017-10-17T06:46:17.548Z,63.73
2017-10-17T06:47:17.581Z,63.82
2017-10-17T06:48:17.613Z,64.01
2017-10-17T06:49:17.674Z,64.01
2017-10-17T06:50:17.996Z,63.92
2017-10-17T06:51:17.714Z,63.92
2017-10-17T06:52:17.759Z,63.73
2017-10-17T06:53:17.830Z,64.01
2017-10-17T06:54:17.829Z,64.01
2017-10-17T06:55:17.852Z,63.82
2017-10-17T06:56:17.906Z,63.82
2017-10-17T06:57:18.228Z,63.43
2017-10-17T06:58:17.951Z,63.73
2017-10-17T06:59:18.002Z,63.34
2017-10-17T07:00:18.016Z,63.53
2017-10-17T07:01:18.043Z,63.63
2017-10-17T07:02:18.080Z,63.34
2017-10-17T07:03:18.112Z,63.15
2017-10-17T07:04:18.478Z,63.53
2017-10-17T07:05:18.198Z,63.05
2017-10-17T07:06:18.229Z,63.05
2017-10-17T07:07:18.253Z,63.18
2017-10-17T07:08:18.290Z,63.05
2017-10-17T07:09:18.318Z,63.05
2017-10-17T07:10:18.360Z,63.24
2017-10-17T07:11:18.648Z,63.28
2017-10-17T07:12:18.408Z,63.37
2017-10-17T07:13:18.467Z,63.18
2017-10-17T07:14:18.477Z,63.15
2017-10-17T07:15:18.510Z,63.15
2017-10-17T07:16:18.562Z,63.15
2017-10-17T07:17:18.596Z,63.15
2017-10-17T07:18:18.875Z,63.05
2017-10-17T07:19:18.812Z,63.34
2017-10-17T07:20:18.742Z,63.37
2017-10-17T07:21:18.735Z,63.37
2017-10-17T07:22:18.740Z,63.28
2017-10-17T07:23:18.792Z,63.37
2017-10-17T07:24:18.810Z,63.18
2017-10-17T07:25:19.152Z,63.08
2017-10-17T07:26:18.875Z,63.28
2017-10-17T07:27:18.910Z,63.08
2017-10-17T07:28:18.950Z,62.98
2017-10-17T07:29:18.977Z,62.98
2017-10-17T07:30:19.126Z,62.98
2017-10-17T07:31:19.040Z,63.08
2017-10-17T07:32:19.347Z,62.98
2017-10-17T07:33:19.108Z,63.08
2017-10-17T07:34:19.149Z,62.89
2017-10-17T07:35:19.172Z,63.18
2017-10-17T07:36:19.222Z,63.08
2017-10-17T07:37:19.245Z,62.98
2017-10-17T07:38:19.304Z,62.89
2017-10-17T07:39:19.576Z,63.37
2017-10-17T07:40:19.388Z,63.08
2017-10-17T07:41:19.372Z,62.98
2017-10-17T07:42:19.407Z,62.98
2017-10-17T07:43:19.460Z,62.98
2017-10-17T07:44:19.490Z,63.18
2017-10-17T07:45:19.559Z,62.70
2017-10-17T07:46:19.790Z,62.60
2017-10-17T07:47:19.603Z,62.70
2017-10-17T07:48:19.609Z,62.60
2017-10-17T07:49:19.658Z,62.70
2017-10-17T07:50:19.674Z,62.79
2017-10-17T07:51:19.779Z,62.70
2017-10-17T07:52:19.883Z,62.89
2017-10-17T07:53:20.096Z,62.89
2017-10-17T07:54:19.808Z,62.40
2017-10-17T07:55:19.960Z,62.50
2017-10-17T07:56:19.891Z,62.60
2017-10-17T07:57:19.929Z,62.60
2017-10-17T07:58:19.957Z,62.40
2017-10-17T07:59:20.246Z,62.50
2017-10-17T08:00:20.035Z,62.50
2017-10-17T08:01:20.114Z,62.50
2017-10-17T08:02:20.085Z,62.40
2017-10-17T08:03:20.118Z,62.60
2017-10-17T08:04:20.165Z,62.70
2017-10-17T08:05:20.202Z,62.79
2017-10-17T08:06:20.527Z,62.70
2017-10-17T08:07:20.261Z,62.79
2017-10-17T08:08:20.296Z,62.79
2017-10-17T08:09:20.312Z,62.60
2017-10-17T08:10:20.388Z,62.50
2017-10-17T08:11:20.505Z,62.40
2017-10-17T08:12:20.709Z,62.40
2017-10-17T08:13:20.463Z,62.60
2017-10-17T08:14:20.506Z,62.50
2017-10-17T08:15:20.511Z,62.60
2017-10-17T08:16:20.559Z,62.70
2017-10-17T08:17:20.593Z,62.70
2017-10-17T08:18:20.623Z,62.40
2017-10-17T08:19:20.967Z,62.31
2017-10-17T08:20:20.721Z,62.70
2017-10-17T08:21:20.750Z,62.60
2017-10-17T08:22:20.989Z,62.12
2017-10-17T08:23:20.882Z,62.44
2017-10-17T08:24:20.835Z,62.05
2017-10-17T08:25:21.098Z,62.31
2017-10-17T08:26:20.886Z,62.02
2017-10-17T08:27:20.921Z,62.05
2017-10-17T08:28:20.948Z,62.15
2017-10-17T08:29:20.996Z,62.40
2017-10-17T08:30:21.016Z,62.44
2017-10-17T08:31:21.342Z,62.53
2017-10-17T08:32:21.096Z,62.31
2017-10-17T08:33:21.142Z,62.24
2017-10-17T08:34:21.165Z,62.53
2017-10-17T08:35:21.180Z,62.44
2017-10-17T08:36:21.298Z,62.34
2017-10-17T08:37:21.511Z,62.44
2017-10-17T08:38:21.306Z,61.86
2017-10-17T08:39:21.343Z,62.05
2017-10-17T08:40:21.367Z,61.86
2017-10-17T08:41:21.403Z,61.57
2017-10-17T08:42:21.419Z,61.76
2017-10-17T08:43:21.701Z,61.86
2017-10-17T08:44:21.535Z,61.66
2017-10-17T08:45:21.555Z,61.66
2017-10-17T08:46:21.570Z,61.86
2017-10-17T08:47:21.614Z,61.86
2017-10-17T08:48:21.655Z,61.66
2017-10-17T08:49:21.977Z,61.76
2017-10-17T08:50:21.703Z,62.15
2017-10-17T08:51:21.719Z,62.05
2017-10-17T08:52:21.769Z,62.05
2017-10-17T08:53:21.787Z,61.86
2017-10-17T08:54:21.842Z,61.76
2017-10-17T08:55:22.113Z,61.47
2017-10-17T08:56:21.928Z,61.57
2017-10-17T08:57:22.406Z,61.57
2017-10-17T08:58:21.961Z,61.57
2017-10-17T08:59:22.066Z,61.86
2017-10-17T09:00:22.052Z,61.86
2017-10-17T09:01:22.068Z,61.86
2017-10-17T09:02:22.410Z,61.86
2017-10-17T09:03:22.131Z,61.47
2017-10-17T09:04:22.278Z,61.47
2017-10-17T09:05:22.234Z,61.37
2017-10-17T09:06:22.280Z,61.57
2017-10-17T09:07:22.278Z,61.57
2017-10-17T09:08:22.601Z,61.37
2017-10-17T09:09:22.326Z,61.27
2017-10-17T09:10:22.481Z,61.57
2017-10-17T09:11:22.426Z,61.18
2017-10-17T09:12:22.436Z,61.18
2017-10-17T09:13:22.480Z,61.47
2017-10-17T09:14:22.533Z,61.30
2017-10-17T09:15:22.799Z,61.60
2017-10-17T09:16:22.581Z,61.60
2017-10-17T09:17:22.608Z,61.57
2017-10-17T09:18:22.647Z,60.92
2017-10-17T09:19:22.683Z,60.69
2017-10-17T09:20:22.717Z,60.82
2017-10-17T09:21:23.132Z,61.21
2017-10-17T09:22:22.766Z,61.08
2017-10-17T09:23:22.804Z,61.18
2017-10-17T09:24:22.840Z,61.02
2017-10-17T09:25:22.873Z,61.02
2017-10-17T09:26:22.934Z,60.89
2017-10-17T09:27:23.251Z,61.02
2017-10-17T09:28:22.988Z,61.02
2017-10-17T09:29:23.005Z,60.92
2017-10-17T09:30:23.055Z,60.82
2017-10-17T09:31:23.093Z,60.99
2017-10-17T09:32:23.137Z,60.92
2017-10-17T09:33:23.422Z,61.11
2017-10-17T09:34:23.195Z,61.21
2017-10-17T09:35:23.229Z,61.18
2017-10-17T09:36:23.247Z,60.82
2017-10-17T09:37:23.321Z,60.79
2017-10-17T09:38:23.320Z,61.02
2017-10-17T09:39:23.347Z,60.79
2017-10-17T09:40:23.639Z,61.02
2017-10-17T09:41:23.447Z,60.44
2017-10-17T09:42:23.453Z,60.44
2017-10-17T09:43:23.501Z,60.44
2017-10-17T09:44:23.533Z,60.72
2017-10-17T09:45:23.588Z,60.63
2017-10-17T09:46:23.899Z,60.63
2017-10-17T09:47:23.624Z,60.63
2017-10-17T09:48:23.671Z,60.63
2017-10-17T09:49:23.705Z,60.63
2017-10-17T09:50:23.737Z,60.34
2017-10-17T09:51:23.753Z,60.44
2017-10-17T09:52:23.835Z,60.34
2017-10-17T09:53:24.144Z,60.14
2017-10-17T09:54:23.856Z,60.44
2017-10-17T09:55:23.916Z,60.24
2017-10-17T09:56:23.927Z,60.63
2017-10-17T09:57:23.995Z,60.63
2017-10-17T09:58:23.994Z,60.44
2017-10-17T09:59:24.488Z,60.72
2017-10-17T10:00:24.071Z,60.63
2017-10-17T10:01:24.096Z,60.34
2017-10-17T10:02:24.162Z,60.44
2017-10-17T10:03:24.173Z,60.14
2017-10-17T10:04:24.218Z,60.24
2017-10-17T10:05:24.531Z,60.34
2017-10-17T10:06:24.278Z,60.44
2017-10-17T10:07:24.324Z,60.24
2017-10-17T10:08:24.353Z,59.76
2017-10-17T10:09:24.368Z,60.05
2017-10-17T10:10:24.410Z,60.44
2017-10-17T10:11:24.704Z,60.24
2017-10-17T10:14:24.721Z,60.24
2017-10-17T10:15:24.626Z,59.95
2017-10-17T10:16:24.627Z,59.95
2017-10-17T10:17:24.896Z,59.76
2017-10-17T10:18:24.729Z,59.56
2017-10-17T10:19:24.717Z,59.66
2017-10-17T10:20:24.746Z,59.59
2017-10-17T10:21:24.851Z,59.59
2017-10-17T10:22:24.839Z,59.47
2017-10-17T10:23:25.116Z,59.56
2017-10-17T10:24:24.902Z,59.69
2017-10-17T10:25:24.934Z,59.69
2017-10-17T10:26:24.972Z,59.69
2017-10-17T10:27:25.106Z,59.86
2017-10-17T10:28:25.055Z,59.59
2017-10-17T10:29:25.308Z,59.79
2017-10-17T10:30:25.108Z,59.69
2017-10-17T10:31:25.150Z,59.79
2017-10-17T10:32:25.234Z,59.98
2017-10-17T10:33:25.251Z,59.89
2017-10-17T10:34:25.248Z,59.50
2017-10-17T10:35:25.570Z,59.79
2017-10-17T10:36:25.302Z,59.79
2017-10-17T10:37:25.354Z,59.79
2017-10-17T10:38:25.382Z,59.40
2017-10-17T10:39:25.417Z,59.21
2017-10-17T10:40:25.455Z,59.21
2017-10-17T10:41:26.009Z,58.92
2017-10-17T10:42:25.528Z,59.11
2017-10-17T10:43:25.546Z,58.92
2017-10-17T10:44:25.589Z,58.82
2017-10-17T10:45:25.610Z,58.92
2017-10-17T10:46:25.660Z,58.82
2017-10-17T10:47:25.979Z,58.92
2017-10-17T10:48:25.736Z,58.82
2017-10-17T10:49:25.746Z,59.11
2017-10-17T10:50:25.783Z,58.63
2017-10-17T10:51:25.864Z,58.63
2017-10-17T10:52:25.872Z,58.72
2017-10-17T10:53:26.159Z,58.72
2017-10-17T10:54:25.928Z,58.82
2017-10-17T10:55:25.971Z,58.82
2017-10-17T10:56:25.998Z,58.82
2017-10-17T10:57:26.042Z,58.92
2017-10-17T10:58:26.080Z,58.82
2017-10-17T10:59:26.428Z,58.72
2017-10-17T11:00:26.160Z,58.72
2017-10-17T11:01:26.194Z,58.14
2017-10-17T11:02:26.217Z,58.24
2017-10-17T11:03:26.257Z,58.34
2017-10-17T11:04:26.294Z,58.37
2017-10-17T11:05:26.646Z,58.44
2017-10-17T11:06:26.487Z,58.37
2017-10-17T11:07:26.385Z,58.47
2017-10-17T11:08:26.434Z,58.63
2017-10-17T11:09:26.506Z,58.53
2017-10-17T11:10:26.476Z,58.44
2017-10-17T11:11:26.817Z,58.65
2017-10-17T11:12:26.571Z,58.65
2017-10-17T11:13:26.631Z,58.65
2017-10-17T11:14:26.680Z,58.56
2017-10-17T11:15:26.670Z,58.34
2017-10-17T11:16:26.704Z,58.37
2017-10-17T11:17:27.059Z,58.07
2017-10-17T11:18:26.762Z,58.07
2017-10-17T11:19:26.811Z,58.14
2017-10-17T11:20:26.837Z,58.07
2017-10-17T11:21:26.930Z,57.95
2017-10-17T11:22:27.112Z,57.59
2017-10-17T11:23:27.283Z,57.50
2017-10-17T11:24:27.066Z,57.50
2017-10-17T11:25:27.562Z,57.86
2017-10-17T11:26:27.106Z,57.88
2017-10-17T11:27:27.182Z,57.86
2017-10-17T11:28:27.615Z,57.88
2017-10-17T11:29:27.472Z,57.98
2017-10-17T11:30:27.374Z,58.07
2017-10-17T11:31:27.226Z,57.88
2017-10-17T11:32:27.412Z,58.07
2017-10-17T11:33:27.792Z,57.69
2017-10-17T11:34:27.468Z,57.30
2017-10-17T11:35:27.653Z,57.40
2017-10-17T11:36:27.446Z,57.30
2017-10-17T11:37:27.543Z,57.50
2017-10-17T11:38:27.485Z,57.50
2017-10-17T11:39:28.246Z,57.30
2017-10-17T11:40:27.913Z,57.40
2017-10-17T11:41:28.041Z,57.50
2017-10-17T11:42:28.148Z,57.59
2017-10-17T11:43:27.644Z,57.50
2017-10-17T11:44:27.720Z,57.59
2017-10-17T11:45:27.742Z,57.69
2017-10-17T11:46:27.932Z,57.40
2017-10-17T11:47:28.091Z,57.30
2017-10-17T11:48:27.892Z,57.20
2017-10-17T11:49:27.845Z,57.30
2017-10-17T11:50:27.902Z,57.11
2017-10-17T11:51:27.912Z,57.11
2017-10-17T11:52:27.971Z,57.40
2017-10-17T11:53:28.299Z,57.30
2017-10-17T11:54:28.020Z,57.30
2017-10-17T11:55:28.106Z,57.59
2017-10-17T11:56:28.112Z,57.59
2017-10-17T11:57:28.128Z,57.11
2017-10-17T11:58:28.285Z,57.20
2017-10-17T11:59:28.514Z,57.30
2017-10-17T12:00:28.252Z,57.20
2017-10-17T12:01:28.329Z,57.30
2017-10-17T12:02:28.325Z,57.11
2017-10-17T12:03:28.342Z,57.11
2017-10-17T12:04:28.369Z,57.20
2017-10-17T12:05:28.707Z,57.01
2017-10-17T12:06:28.475Z,57.20
2017-10-17T12:07:28.495Z,57.33
2017-10-17T12:08:28.756Z,57.11
2017-10-17T12:09:28.551Z,57.11
2017-10-17T12:10:28.612Z,57.43
2017-10-17T12:11:28.897Z,57.33
2017-10-17T12:12:28.688Z,57.01
2017-10-17T12:13:28.789Z,57.40
2017-10-17T12:14:28.778Z,57.33
2017-10-17T12:15:28.790Z,57.23
2017-10-17T12:16:28.822Z,57.23
2017-10-17T12:17:29.099Z,57.01
2017-10-17T12:18:28.873Z,57.04
2017-10-17T12:19:28.920Z,57.43
2017-10-17T12:20:28.942Z,57.43
2017-10-17T12:21:28.981Z,57.04
2017-10-17T12:22:29.041Z,57.43
2017-10-17T12:23:29.355Z,57.23
2017-10-17T12:24:29.078Z,56.94
2017-10-17T12:25:29.197Z,56.85
2017-10-17T12:26:29.174Z,56.94
2017-10-17T12:27:29.209Z,57.04
2017-10-17T12:28:29.259Z,57.04
2017-10-17T12:29:29.556Z,56.85
2017-10-17T12:30:29.289Z,56.94
2017-10-17T12:31:29.328Z,56.85
2017-10-17T12:32:29.375Z,57.04
2017-10-17T12:33:29.410Z,56.85
2017-10-17T12:34:29.431Z,56.85
2017-10-17T12:35:29.717Z,57.14
2017-10-17T12:36:29.499Z,57.04
2017-10-17T12:37:29.553Z,57.14
2017-10-17T12:38:29.571Z,57.04
2017-10-17T12:39:29.615Z,57.14
2017-10-17T12:40:29.642Z,57.04
2017-10-17T12:41:30.175Z,57.04
2017-10-17T12:42:29.710Z,57.04
2017-10-17T12:43:29.765Z,57.04
2017-10-17T12:44:29.958Z,57.14
2017-10-17T12:45:29.838Z,57.14
2017-10-17T12:46:29.874Z,57.23
2017-10-17T12:47:30.167Z,57.04
2017-10-17T12:48:29.957Z,57.33
2017-10-17T12:49:29.960Z,56.94
2017-10-17T12:50:30.048Z,56.94
2017-10-17T12:51:30.051Z,57.43
2017-10-17T12:52:30.087Z,57.33
2017-10-17T12:53:30.411Z,57.33
2017-10-17T12:54:30.233Z,57.23